Main page
METAR-TAF:

METAR-TAF

Airports :

Tunoshna Airport

Yaroslavl, Russia

latitude: 57-33-38N, longitude: 040-09-27E, elevation: 87 m

Current weather observation

The report was made 32 minutes ago, at 21:00 UTC
Wind 10 kt from the West/Northwest
Temperature -2°C
Humidity 86%
Pressure 993 hPa
Visibility 10 km or more
no clouds below 1500 m and no cumulonimbus

METAR: UUDL 222100Z 30005MPS CAVOK M02/M04 Q0993 R23/890340 NOSIG RMK QFE737

Time: 00:32 (21:32 UTC)

Forecast

The report was made 1 hour and 32 minutes ago, at 20:00 UTC
Forecast valid from 22 at 21 UTC to 23 at 21 UTC
Wind 16 kt from the Northwest with gusts up to 25 kt
Visibility 10 km or more
Broken clouds at a height of 3000 ft
Temporary
from 22 at 21 UTC to 23 at 09 UTC
Visibility: 3100 m
Broken clouds at a height of 1100 ft
light snow, Blowing snow

TAF: UUDL 222000Z 2221/2321 31008G13MPS 9999 BKN030 TXM02/2221Z TNM06/2321Z TEMPO 2221/2309 3100 -SN BLSN BKN011

Weather observations and forecasts of more than 4000 airports (METAR and TAF reports).

The available stations are represented by yellow and red dots on the map.

Hover mouse over dot to see the name of the station.

Then click to see weather observations and forecasts.

To change the map : click on the green buttons with a black cross to zoom in, on the green button with a dash to zoom out, or on the green arrows for adjacent maps.


METAR-TAF: